Alma, CO (80420)

4:08 PM MDT on July 29, 2016 (GMT -0600)
Placer Valley, Park County | | Change Station
Active Advisory: Severe Thunderstorm Watch

Elev 11056 ft 39.35 °N, 106.06 °W | Updated 12 seconds ago

Clear
Clear
70.2 °F
Feels Like 74 °F
N
3.4
Wind Variable Wind from SW
Gusts 4.9 mph

Today
High -- | Low -- °F
--% Chance of Precip.
Yesterday
High -- | Low -- °F
Precip. -- in
Pressure 30.64 in
Visibility 10.0 miles
Clouds Clear
Heat Index 74 °F
Dew Point 26 °F
Humidity 19%
Rainfall 0.00 in
Snow Depth Not available.
6:02 AM 8:18 PM
Waning Crescent, 18% visible
METAR KCCU 292156Z AUTO 28016G24KT 10SM CLR 18/M07 A3064 RMK AO2
Pressure 30.64 in
Visibility 10.0 miles
Clouds Clear
Heat Index 74 °F
Dew Point 26 °F
Humidity 19%
Rainfall 0.00 in
Snow Depth Not available.
6:02 AM 8:18 PM
Waning Crescent, 18% visible
METAR KCCU 292156Z AUTO 28016G24KT 10SM CLR 18/M07 A3064 RMK AO2

10-Day Weather Forecast

Almanac

Astronomy

Jul. 29, 2016 Rise Set
Actual Time
Civil Twilight
Nautical Twilight
Astronomical Twilight
Moon
Length of Visible Light
Length of Day
Tomorrow will be .
, % of the Moon is Illuminated

Today's Extremes

State Highs State Lows

Community

WunderPhotos

Upload Photos

1,928,427 photos uploaded!

WunderBlog® & News

Nearby

Air Quality

  Air Quality AQ Index Pollutant
Not available.

Snow Depth

Station Depth Elevation

Earthquake Activity

City Distance Mag. Time & Date
Minimum magnitude displayed is 2.5.

Coastal Water Temperatures

Place Temperature

Stations

Nearby Weather Stations

Station Location Temp. Windchill Dew Point Humidity Wind Precip. Elev Updated Type
                   

Watches & Warnings

Severe Thunderstorm Watch
Issued: 3:59 PM MDT Jul. 29, 2016 – National Weather Service

Severe Thunderstorm Watch 422 remains in effect until 1000 PM MDT
for the following locations


Co
. Colorado counties included are

Adams Arapahoe Boulder
Broomfield Denver Douglas
Elbert El Paso Jefferson
Larimer Lincoln Logan
Morgan Phillips Sedgwick
Washington Weld